createdAt,value
2018-08-16T00:02:03.946Z,78.73
2018-08-16T00:04:32.694Z,78.43
2018-08-16T00:07:01.429Z,78.74
2018-08-16T00:09:29.889Z,78.86
2018-08-16T00:11:58.330Z,78.91
2018-08-16T00:14:27.311Z,78.90
2018-08-16T00:16:55.839Z,79.19
2018-08-16T00:19:24.305Z,79.20
2018-08-16T00:21:53.096Z,79.24
2018-08-16T00:24:21.513Z,79.44
2018-08-16T00:26:49.956Z,79.46
2018-08-16T00:29:18.813Z,79.83
2018-08-16T00:31:47.249Z,79.53
2018-08-16T00:34:15.921Z,79.75
2018-08-16T00:36:44.751Z,79.54
2018-08-16T00:39:13.181Z,79.74
2018-08-16T00:41:41.624Z,79.71
2018-08-16T00:44:10.412Z,79.63
2018-08-16T00:46:38.838Z,79.50
2018-08-16T00:49:08.284Z,79.50
2018-08-16T00:51:37.189Z,79.67
2018-08-16T00:54:05.946Z,79.57
2018-08-16T00:56:35.120Z,79.68
2018-08-16T00:59:03.855Z,79.76
2018-08-16T01:01:32.309Z,79.72
2018-08-16T01:04:00.772Z,79.63
2018-08-16T01:06:29.990Z,79.70
2018-08-16T01:08:58.444Z,79.58
2018-08-16T01:11:27.181Z,79.54
2018-08-16T01:13:55.948Z,79.45
2018-08-16T01:16:24.418Z,79.32
2018-08-16T01:18:53.169Z,79.41
2018-08-16T01:21:22.078Z,79.34
2018-08-16T01:23:50.547Z,79.21
2018-08-16T01:26:19.506Z,79.34
2018-08-16T01:28:48.133Z,79.22
2018-08-16T01:31:16.671Z,79.05
2018-08-16T01:33:45.378Z,79.10
2018-08-16T01:36:13.955Z,79.03
2018-08-16T01:38:42.517Z,79.02
2018-08-16T01:41:11.045Z,79.07
2018-08-16T01:43:40.138Z,79.00
2018-08-16T01:46:09.153Z,78.83
2018-08-16T01:48:37.737Z,78.67
2018-08-16T01:51:07.173Z,78.56
2018-08-16T01:53:35.961Z,78.44
2018-08-16T01:56:04.583Z,78.54
2018-08-16T01:58:33.181Z,78.46
2018-08-16T02:01:01.790Z,78.35
2018-08-16T02:03:30.430Z,78.49
2018-08-16T02:05:58.903Z,78.51
2018-08-16T02:08:27.452Z,78.60
2018-08-16T02:10:55.897Z,78.35
2018-08-16T02:13:24.937Z,78.53
2018-08-16T02:15:53.422Z,78.60
2018-08-16T02:18:21.877Z,78.40
2018-08-16T02:20:50.581Z,78.64
2018-08-16T02:23:19.035Z,78.67
2018-08-16T02:25:47.805Z,78.67
2018-08-16T02:28:16.357Z,78.77
2018-08-16T02:30:44.803Z,78.87
2018-08-16T02:33:13.241Z,78.86
2018-08-16T02:35:42.109Z,78.90
2018-08-16T02:38:10.781Z,79.02
2018-08-16T02:40:40.271Z,79.16
2018-08-16T02:43:09.265Z,79.35
2018-08-16T02:45:37.711Z,79.35
2018-08-16T02:48:08.025Z,79.38
2018-08-16T02:50:36.656Z,79.55
2018-08-16T02:53:05.394Z,79.55
2018-08-16T02:55:33.942Z,79.79
2018-08-16T02:58:03.017Z,79.88
2018-08-16T03:00:31.482Z,79.91
2018-08-16T03:03:00.066Z,79.84
2018-08-16T03:05:29.268Z,80.08
2018-08-16T03:07:57.693Z,80.07
2018-08-16T03:10:26.142Z,80.21
2018-08-16T03:12:54.733Z,80.11
2018-08-16T03:15:23.207Z,80.21
2018-08-16T03:17:51.770Z,80.14
2018-08-16T03:20:20.781Z,80.20
2018-08-16T03:22:49.277Z,80.28
2018-08-16T03:25:17.747Z,80.37
2018-08-16T03:27:46.678Z,80.24
2018-08-16T03:30:15.159Z,80.33
2018-08-16T03:32:43.587Z,80.38
2018-08-16T03:35:12.203Z,80.23
2018-08-16T03:37:40.638Z,80.31
2018-08-16T03:40:09.274Z,80.12
2018-08-16T03:42:38.185Z,80.14
2018-08-16T03:45:07.605Z,80.22
2018-08-16T03:47:36.030Z,80.33
2018-08-16T03:50:05.336Z,80.34
2018-08-16T03:52:33.911Z,80.36
2018-08-16T03:55:02.599Z,80.23
2018-08-16T03:57:31.143Z,80.41
2018-08-16T03:59:59.629Z,80.22
2018-08-16T04:02:28.176Z,80.31
2018-08-16T04:04:56.925Z,80.17
2018-08-16T04:07:25.491Z,80.42
2018-08-16T04:09:53.918Z,80.39
2018-08-16T04:12:22.948Z,80.34
2018-08-16T04:14:51.733Z,80.42
2018-08-16T04:17:24.420Z,80.47
2018-08-16T04:19:52.835Z,80.34
2018-08-16T04:22:21.274Z,80.13
2018-08-16T04:24:49.768Z,79.98
2018-08-16T04:27:18.622Z,80.05
2018-08-16T04:29:47.100Z,79.73
2018-08-16T04:32:15.713Z,79.84
2018-08-16T04:34:44.373Z,79.66
2018-08-16T04:37:12.808Z,79.72
2018-08-16T04:39:41.292Z,79.93
2018-08-16T04:42:09.838Z,79.50
2018-08-16T04:44:38.528Z,79.33
2018-08-16T04:47:07.223Z,79.53
2018-08-16T04:49:35.898Z,79.11
2018-08-16T04:52:04.377Z,79.01
2018-08-16T04:54:32.856Z,78.99
2018-08-16T04:57:01.670Z,78.90
2018-08-16T04:59:30.112Z,78.74
2018-08-16T05:01:58.665Z,78.54
2018-08-16T05:04:27.361Z,78.58
2018-08-16T05:06:56.082Z,78.22
2018-08-16T05:09:24.545Z,78.14
2018-08-16T05:11:53.236Z,77.96
2018-08-16T05:14:21.657Z,77.82
2018-08-16T05:16:50.142Z,77.96
2018-08-16T05:19:18.597Z,77.24
2018-08-16T05:21:47.009Z,77.69
2018-08-16T05:24:15.473Z,77.29
2018-08-16T05:26:44.099Z,76.59
2018-08-16T05:29:12.528Z,76.70
2018-08-16T05:31:41.033Z,76.28
2018-08-16T05:34:12.306Z,75.79
2018-08-16T05:36:47.318Z,75.51
2018-08-16T05:39:16.056Z,75.47
2018-08-16T05:41:44.478Z,74.63
2018-08-16T05:44:12.982Z,74.87
2018-08-16T05:46:41.864Z,74.20
2018-08-16T05:49:10.459Z,73.92
2018-08-16T05:51:38.977Z,73.80
2018-08-16T05:54:08.271Z,73.98
2018-08-16T05:56:36.799Z,73.08
2018-08-16T05:59:05.364Z,73.24
2018-08-16T06:01:34.210Z,72.82
2018-08-16T06:04:02.657Z,72.56
2018-08-16T06:06:31.238Z,72.27
2018-08-16T06:09:00.002Z,71.68
2018-08-16T06:11:28.765Z,71.89
2018-08-16T06:13:57.318Z,71.48
2018-08-16T06:16:26.029Z,70.75
2018-08-16T06:18:54.539Z,70.96
2018-08-16T06:21:23.302Z,70.92
2018-08-16T06:23:51.808Z,70.23
2018-08-16T06:26:20.338Z,69.81
2018-08-16T06:28:48.816Z,69.76
2018-08-16T06:31:17.424Z,69.92
2018-08-16T06:33:45.917Z,69.74
2018-08-16T06:36:14.482Z,69.07
2018-08-16T06:38:43.130Z,68.65
2018-08-16T06:41:11.564Z,68.21
2018-08-16T06:43:40.033Z,67.80
2018-08-16T06:46:09.026Z,67.28
2018-08-16T06:48:38.183Z,67.07
2018-08-16T06:51:08.017Z,66.78
2018-08-16T06:53:36.645Z,66.94
2018-08-16T06:56:05.127Z,66.72
2018-08-16T06:58:33.628Z,66.89
2018-08-16T07:01:09.844Z,66.26
2018-08-16T07:03:38.358Z,66.08
2018-08-16T07:06:07.001Z,66.04
2018-08-16T07:08:35.581Z,65.68
2018-08-16T07:11:04.704Z,66.02
2018-08-16T07:13:33.172Z,65.42
2018-08-16T07:16:01.673Z,65.60
2018-08-16T07:18:30.129Z,63.20
2018-08-16T07:20:58.690Z,63.01
2018-08-16T07:23:27.577Z,62.77
2018-08-16T07:25:56.265Z,62.12
2018-08-16T07:28:25.138Z,61.20
2018-08-16T07:30:53.696Z,59.83
2018-08-16T07:33:22.158Z,59.61
2018-08-16T07:35:50.613Z,59.00
2018-08-16T07:38:20.308Z,57.28
2018-08-16T07:40:48.848Z,57.34
2018-08-16T07:43:17.318Z,57.00
2018-08-16T07:45:46.202Z,56.23
2018-08-16T07:48:14.589Z,55.77
2018-08-16T07:50:43.073Z,55.12
2018-08-16T07:53:11.596Z,54.89
2018-08-16T07:55:40.149Z,56.00
2018-08-16T07:58:08.590Z,55.86
2018-08-16T08:00:37.318Z,54.83
2018-08-16T08:03:06.261Z,55.01
2018-08-16T08:05:34.705Z,52.85
2018-08-16T08:08:03.709Z,53.17
2018-08-16T08:10:32.242Z,53.68
2018-08-16T08:13:00.873Z,53.10
2018-08-16T08:15:29.789Z,52.36
2018-08-16T08:17:58.433Z,51.50
2018-08-16T08:20:26.922Z,51.66
2018-08-16T08:22:55.829Z,50.80
2018-08-16T08:25:24.592Z,50.62
2018-08-16T08:27:53.082Z,49.73
2018-08-16T08:30:22.186Z,50.12
2018-08-16T08:32:50.664Z,48.72
2018-08-16T08:35:19.141Z,48.39
2018-08-16T08:37:59.352Z,49.03
2018-08-16T08:40:27.790Z,48.72
2018-08-16T08:42:56.276Z,48.03
2018-08-16T08:45:25.067Z,48.69
2018-08-16T08:47:56.974Z,47.47
2018-08-16T08:50:29.154Z,46.70
2018-08-16T08:53:08.574Z,47.06
2018-08-16T08:55:48.722Z,47.13
2018-08-16T08:58:28.284Z,46.15
2018-08-16T09:00:57.185Z,47.28
2018-08-16T09:03:25.968Z,46.43
2018-08-16T09:05:54.405Z,45.17
2018-08-16T09:08:23.102Z,45.94
2018-08-16T09:11:04.823Z,46.34
2018-08-16T09:13:44.763Z,45.74
2018-08-16T09:16:18.540Z,45.97
2018-08-16T09:18:47.200Z,45.03
2018-08-16T09:21:15.973Z,44.10
2018-08-16T09:23:44.469Z,43.59
2018-08-16T09:26:18.209Z,44.10
2018-08-16T09:28:46.954Z,44.40
2018-08-16T09:31:27.164Z,44.51
2018-08-16T09:34:06.040Z,44.55
2018-08-16T09:36:34.493Z,43.21
2018-08-16T09:39:03.092Z,42.86
2018-08-16T09:41:31.881Z,42.70
2018-08-16T09:44:00.337Z,42.12
2018-08-16T09:46:53.297Z,42.22
2018-08-16T09:49:21.819Z,42.66
2018-08-16T09:51:50.317Z,43.13
2018-08-16T09:54:18.978Z,42.07
2018-08-16T09:56:47.887Z,41.80
2018-08-16T09:59:16.718Z,41.19
2018-08-16T10:01:45.606Z,39.89
2018-08-16T10:04:14.335Z,40.37
2018-08-16T10:06:49.470Z,39.86
2018-08-16T10:09:27.095Z,39.37
2018-08-16T10:11:56.415Z,38.66
2018-08-16T10:14:25.018Z,38.58
2018-08-16T10:16:53.589Z,38.82
2018-08-16T10:19:22.490Z,38.43
2018-08-16T10:21:50.958Z,39.47
2018-08-16T10:24:19.510Z,40.04
2018-08-16T10:26:48.065Z,38.87
2018-08-16T10:29:16.515Z,38.39
2018-08-16T10:31:45.034Z,38.32
2018-08-16T10:34:14.004Z,37.81
2018-08-16T10:36:42.581Z,37.57
2018-08-16T10:39:14.382Z,38.28
2018-08-16T10:41:43.729Z,39.52
2018-08-16T10:44:12.770Z,39.43
2018-08-16T10:46:41.298Z,39.86
2018-08-16T10:49:09.794Z,40.53
2018-08-16T10:51:38.260Z,40.65
2018-08-16T10:54:07.191Z,39.86
2018-08-16T10:56:35.774Z,40.82
2018-08-16T10:59:04.293Z,39.51
2018-08-16T11:01:32.765Z,39.42
2018-08-16T11:04:01.674Z,40.06
2018-08-16T11:06:30.449Z,40.12
2018-08-16T11:08:59.298Z,39.71
2018-08-16T11:11:27.725Z,40.37
2018-08-16T11:13:56.264Z,42.08
2018-08-16T11:16:24.890Z,41.22
2018-08-16T11:18:53.646Z,41.40
2018-08-16T11:21:22.105Z,41.45
2018-08-16T11:23:50.566Z,40.36
2018-08-16T11:26:20.295Z,40.39
2018-08-16T11:28:48.738Z,39.48
2018-08-16T11:31:17.333Z,39.71
2018-08-16T11:33:46.449Z,40.55
2018-08-16T11:36:14.894Z,40.40
2018-08-16T11:38:43.374Z,38.87
2018-08-16T11:41:11.867Z,39.79
2018-08-16T11:43:40.309Z,39.75
2018-08-16T11:46:08.813Z,38.71
2018-08-16T11:48:37.305Z,39.58
2018-08-16T11:51:05.748Z,37.74
2018-08-16T11:53:34.245Z,37.35
2018-08-16T11:56:02.771Z,38.59
2018-08-16T11:58:31.262Z,37.49
2018-08-16T12:00:59.919Z,37.81
2018-08-16T12:03:28.574Z,37.56
2018-08-16T12:05:57.045Z,38.82
2018-08-16T12:08:25.691Z,39.36
2018-08-16T12:10:54.230Z,38.35
2018-08-16T12:13:23.176Z,38.47
2018-08-16T12:15:52.254Z,38.36
2018-08-16T12:18:21.234Z,37.83
2018-08-16T12:20:49.682Z,37.44
2018-08-16T12:23:18.177Z,37.36
2018-08-16T12:25:46.897Z,36.43
2018-08-16T12:28:15.390Z,35.73
2018-08-16T12:30:43.889Z,36.55
2018-08-16T12:33:12.742Z,36.63
2018-08-16T12:35:41.238Z,36.00
2018-08-16T12:38:09.761Z,35.19
2018-08-16T12:40:39.081Z,35.41
2018-08-16T12:43:07.864Z,35.64
2018-08-16T12:45:36.701Z,35.77
2018-08-16T12:48:05.377Z,34.72
2018-08-16T12:50:33.951Z,34.45
2018-08-16T12:53:02.401Z,34.38
2018-08-16T12:55:31.125Z,33.37
2018-08-16T12:57:59.642Z,34.88
2018-08-16T13:00:28.201Z,36.23
2018-08-16T13:02:56.874Z,36.43
2018-08-16T13:05:25.334Z,37.11
2018-08-16T13:07:53.885Z,37.10
2018-08-16T13:10:22.882Z,36.06
2018-08-16T13:12:51.397Z,34.56
2018-08-16T13:15:19.887Z,33.21
2018-08-16T13:17:48.646Z,33.36
2018-08-16T13:20:18.001Z,33.95
2018-08-16T13:22:46.489Z,35.66
2018-08-16T13:25:15.115Z,36.21
2018-08-16T13:27:43.588Z,36.72
2018-08-16T13:30:12.346Z,37.88
2018-08-16T13:32:41.089Z,38.21
2018-08-16T13:35:09.574Z,39.61
2018-08-16T13:37:38.320Z,40.55
2018-08-16T13:40:08.529Z,40.12
2018-08-16T13:42:36.990Z,40.48
2018-08-16T13:45:05.745Z,40.35
2018-08-16T13:47:34.285Z,39.13
2018-08-16T13:50:02.742Z,38.67
2018-08-16T13:52:31.220Z,37.71
2018-08-16T13:55:00.024Z,37.94
2018-08-16T13:57:28.452Z,38.67
2018-08-16T13:59:56.947Z,39.93
2018-08-16T14:02:25.670Z,40.38
2018-08-16T14:04:54.093Z,41.47
2018-08-16T14:07:22.746Z,41.44
2018-08-16T14:09:51.386Z,41.34
2018-08-16T14:12:20.387Z,41.93
2018-08-16T14:14:48.937Z,43.46
2018-08-16T14:17:17.481Z,44.23
2018-08-16T14:19:46.901Z,44.40
2018-08-16T14:22:15.686Z,43.90
2018-08-16T14:24:44.437Z,44.18
2018-08-16T14:27:12.895Z,45.10
2018-08-16T14:29:41.457Z,45.91
2018-08-16T14:32:10.072Z,46.09
2018-08-16T14:34:38.757Z,46.33
2018-08-16T14:37:07.818Z,46.15
2018-08-16T14:39:36.621Z,46.81
2018-08-16T14:42:05.111Z,46.75
2018-08-16T14:44:33.609Z,46.69
2018-08-16T14:47:02.586Z,46.90
2018-08-16T14:49:31.042Z,46.75
2018-08-16T14:51:59.538Z,46.84
2018-08-16T14:54:28.271Z,45.97
2018-08-16T14:56:56.729Z,45.42
2018-08-16T14:59:25.236Z,44.72
2018-08-16T15:01:53.862Z,45.44
2018-08-16T15:04:22.307Z,45.99
2018-08-16T15:06:50.827Z,45.87
2018-08-16T15:09:19.521Z,45.98
2018-08-16T15:11:47.969Z,45.62
2018-08-16T15:14:16.904Z,46.62
2018-08-16T15:16:45.349Z,47.35
2018-08-16T15:19:13.810Z,47.60
2018-08-16T15:21:42.470Z,47.83
2018-08-16T15:24:11.250Z,47.78
2018-08-16T15:26:39.797Z,48.34
2018-08-16T15:29:08.386Z,47.52
2018-08-16T15:31:37.749Z,48.22
2018-08-16T15:34:07.553Z,48.70
2018-08-16T15:36:36.100Z,49.06
2018-08-16T15:39:07.452Z,48.93
2018-08-16T15:41:35.914Z,49.70
2018-08-16T15:44:04.441Z,50.14
2018-08-16T15:46:32.963Z,50.16
2018-08-16T15:49:01.502Z,50.00
2018-08-16T15:51:30.342Z,50.21
2018-08-16T15:53:58.767Z,49.74
2018-08-16T15:56:27.426Z,50.37
2018-08-16T15:58:56.137Z,50.50
2018-08-16T16:01:24.582Z,50.41
2018-08-16T16:03:53.114Z,50.21
2018-08-16T16:06:21.900Z,50.14
2018-08-16T16:08:50.301Z,50.49
2018-08-16T16:11:19.189Z,51.20
2018-08-16T16:13:47.717Z,51.59
2018-08-16T16:16:16.254Z,51.89
2018-08-16T16:18:44.773Z,52.32
2018-08-16T16:21:13.986Z,52.41
2018-08-16T16:23:42.433Z,52.05
2018-08-16T16:26:11.145Z,52.11
2018-08-16T16:28:40.107Z,53.11
2018-08-16T16:31:10.494Z,52.51
2018-08-16T16:33:39.410Z,53.18
2018-08-16T16:36:08.813Z,53.73
2018-08-16T16:38:38.030Z,53.89
2018-08-16T16:41:06.969Z,54.03
2018-08-16T16:43:36.145Z,54.17
2018-08-16T16:46:04.773Z,54.44
2018-08-16T16:48:33.301Z,54.77
2018-08-16T16:51:02.061Z,54.77
2018-08-16T16:53:30.612Z,54.60
2018-08-16T16:55:59.327Z,55.08
2018-08-16T16:58:27.872Z,54.90
2018-08-16T17:00:56.397Z,55.57
2018-08-16T17:03:24.977Z,55.26
2018-08-16T17:05:53.445Z,55.64
2018-08-16T17:08:22.092Z,55.33
2018-08-16T17:10:50.578Z,55.90
2018-08-16T17:13:19.105Z,55.42
2018-08-16T17:15:47.645Z,55.47
2018-08-16T17:18:16.362Z,55.83
2018-08-16T17:20:44.862Z,55.90
2018-08-16T17:23:13.357Z,55.52
2018-08-16T17:25:41.788Z,55.94
2018-08-16T17:28:10.643Z,55.87
2018-08-16T17:30:39.132Z,55.82
2018-08-16T17:33:08.381Z,56.06
2018-08-16T17:35:37.616Z,56.53
2018-08-16T17:38:06.952Z,56.57
2018-08-16T17:40:35.407Z,57.13
2018-08-16T17:43:03.884Z,57.13
2018-08-16T17:45:32.454Z,56.78
2018-08-16T17:48:01.107Z,57.65
2018-08-16T17:50:29.910Z,57.45
2018-08-16T17:52:58.417Z,57.83
2018-08-16T17:55:26.858Z,57.79
2018-08-16T17:57:55.433Z,58.09
2018-08-16T18:00:23.945Z,57.77
2018-08-16T18:02:52.497Z,58.42
2018-08-16T18:05:21.016Z,58.47
2018-08-16T18:07:49.797Z,59.33
2018-08-16T18:10:18.252Z,58.77
2018-08-16T18:12:46.691Z,59.56
2018-08-16T18:15:15.192Z,59.56
2018-08-16T18:17:43.633Z,59.78
2018-08-16T18:20:12.303Z,59.83
2018-08-16T18:22:40.790Z,60.33
2018-08-16T18:25:09.509Z,60.46
2018-08-16T18:27:38.502Z,60.85
2018-08-16T18:30:08.540Z,60.38
2018-08-16T18:32:37.065Z,60.92
2018-08-16T18:35:05.913Z,60.96
2018-08-16T18:37:34.389Z,61.11
2018-08-16T18:40:02.886Z,61.54
2018-08-16T18:42:31.768Z,61.57
2018-08-16T18:45:00.394Z,61.42
2018-08-16T18:47:29.169Z,61.47
2018-08-16T18:49:58.145Z,61.64
2018-08-16T18:52:26.784Z,62.39
2018-08-16T18:54:55.231Z,62.63
2018-08-16T18:57:24.106Z,62.16
2018-08-16T18:59:53.638Z,62.72
2018-08-16T19:02:22.177Z,62.82
2018-08-16T19:04:51.095Z,62.94
2018-08-16T19:07:19.595Z,63.76
2018-08-16T19:09:48.057Z,63.49
2018-08-16T19:12:16.617Z,63.51
2018-08-16T19:14:45.099Z,63.94
2018-08-16T19:17:14.119Z,64.42
2018-08-16T19:19:42.648Z,65.16
2018-08-16T19:22:11.254Z,65.33
2018-08-16T19:24:39.709Z,65.31
2018-08-16T19:27:08.438Z,65.59
2018-08-16T19:29:37.801Z,65.59
2018-08-16T19:32:06.566Z,65.79
2018-08-16T19:34:35.395Z,65.68
2018-08-16T19:37:04.025Z,65.53
2018-08-16T19:39:32.499Z,65.84
2018-08-16T19:42:01.392Z,66.74
2018-08-16T19:44:29.917Z,66.31
2018-08-16T19:46:58.379Z,66.39
2018-08-16T19:49:26.948Z,67.17
2018-08-16T19:51:55.474Z,67.14
2018-08-16T19:54:24.132Z,67.13
2018-08-16T19:56:52.942Z,67.10
2018-08-16T19:59:21.541Z,67.21
2018-08-16T20:01:50.203Z,67.53
2018-08-16T20:04:18.973Z,67.70
2018-08-16T20:06:48.090Z,67.77
2018-08-16T20:09:16.593Z,67.35
2018-08-16T20:11:45.277Z,67.48
2018-08-16T20:14:13.773Z,67.47
2018-08-16T20:16:42.230Z,67.54
2018-08-16T20:19:11.046Z,67.63
2018-08-16T20:21:39.662Z,67.94
2018-08-16T20:24:09.335Z,67.68
2018-08-16T20:26:37.802Z,67.97
2018-08-16T20:29:07.450Z,68.33
2018-08-16T20:31:35.959Z,68.23
2018-08-16T20:34:04.788Z,68.80
2018-08-16T20:36:33.334Z,69.01
2018-08-16T20:39:02.809Z,68.62
2018-08-16T20:41:32.367Z,69.31
2018-08-16T20:44:00.860Z,69.08
2018-08-16T20:46:29.413Z,69.57
2018-08-16T20:48:58.318Z,69.61
2018-08-16T20:51:26.796Z,69.89
2018-08-16T20:53:55.612Z,69.86
2018-08-16T20:56:24.476Z,69.68
2018-08-16T20:58:52.974Z,70.12
2018-08-16T21:01:21.629Z,70.27
2018-08-16T21:03:50.223Z,70.47
2018-08-16T21:06:18.937Z,70.61
2018-08-16T21:08:47.698Z,70.62
2018-08-16T21:11:16.581Z,70.69
2018-08-16T21:13:45.041Z,70.80
2018-08-16T21:16:13.607Z,70.81
2018-08-16T21:18:42.213Z,71.29
2018-08-16T21:21:11.778Z,71.14
2018-08-16T21:23:40.357Z,71.76
2018-08-16T21:26:09.479Z,71.40
2018-08-16T21:28:38.842Z,71.61
2018-08-16T21:31:07.570Z,71.60
2018-08-16T21:33:37.169Z,71.74
2018-08-16T21:36:08.806Z,72.43
2018-08-16T21:38:38.292Z,72.47
2018-08-16T21:41:07.800Z,72.35
2018-08-16T21:43:36.923Z,72.63
2018-08-16T21:46:06.528Z,72.90
2018-08-16T21:48:35.083Z,73.29
2018-08-16T21:51:03.565Z,72.83
2018-08-16T21:53:32.536Z,73.40
2018-08-16T21:56:01.009Z,73.57
2018-08-16T21:58:29.445Z,73.67
2018-08-16T22:01:01.606Z,73.94
2018-08-16T22:03:30.219Z,73.59
2018-08-16T22:06:04.570Z,74.00
2018-08-16T22:08:44.202Z,73.89
2018-08-16T22:11:12.901Z,74.53
2018-08-16T22:13:41.652Z,74.10
2018-08-16T22:16:10.359Z,74.86
2018-08-16T22:18:39.445Z,74.79
2018-08-16T22:21:08.132Z,74.73
2018-08-16T22:23:36.605Z,74.59
2018-08-16T22:26:05.370Z,74.81
2018-08-16T22:28:33.933Z,75.28
2018-08-16T22:31:02.442Z,75.02
2018-08-16T22:33:31.503Z,75.54
2018-08-16T22:35:59.997Z,75.19
2018-08-16T22:38:28.621Z,75.49
2018-08-16T22:40:57.561Z,75.87
2018-08-16T22:43:26.013Z,76.31
2018-08-16T22:45:54.481Z,75.95
2018-08-16T22:48:23.189Z,76.11
2018-08-16T22:50:51.644Z,76.69
2018-08-16T22:53:20.107Z,76.68
2018-08-16T22:55:49.067Z,76.59
2018-08-16T22:58:18.281Z,76.80
2018-08-16T23:00:46.754Z,76.80
2018-08-16T23:03:15.402Z,76.99
2018-08-16T23:05:43.844Z,76.35
2018-08-16T23:08:12.293Z,76.82
2018-08-16T23:10:41.089Z,76.79
2018-08-16T23:13:09.555Z,76.77
2018-08-16T23:15:38.507Z,76.70
2018-08-16T23:18:07.191Z,77.07
2018-08-16T23:20:36.546Z,77.06
2018-08-16T23:23:05.018Z,76.71
2018-08-16T23:25:33.815Z,76.77
2018-08-16T23:28:02.297Z,76.85
2018-08-16T23:30:31.151Z,76.94
2018-08-16T23:32:59.844Z,77.13
2018-08-16T23:35:28.295Z,76.91
2018-08-16T23:37:57.034Z,76.55
2018-08-16T23:40:25.994Z,77.07
2018-08-16T23:42:54.446Z,77.05
2018-08-16T23:45:22.907Z,77.04
2018-08-16T23:48:02.717Z,76.54
2018-08-16T23:50:31.169Z,76.99
2018-08-16T23:53:00.181Z,76.48
2018-08-16T23:55:28.729Z,76.62
2018-08-16T23:57:57.184Z,76.31
